sensor_id;sensor_type;location;lat;lon;timestamp;temperature;humidity
18229;DHT22;9239;50.932;3.142;2023-12-07T00:01:12;2.40;99.90
18229;DHT22;9239;50.932;3.142;2023-12-07T00:03:40;2.50;99.90
18229;DHT22;9239;50.932;3.142;2023-12-07T00:06:08;2.50;99.90
18229;DHT22;9239;50.932;3.142;2023-12-07T00:08:34;2.50;99.90
18229;DHT22;9239;50.932;3.142;2023-12-07T00:11:01;2.50;99.90
18229;DHT22;9239;50.932;3.142;2023-12-07T00:13:28;2.50;99.90
18229;DHT22;9239;50.932;3.142;2023-12-07T00:15:55;2.50;99.90
18229;DHT22;9239;50.932;3.142;2023-12-07T00:18:22;2.50;99.90
18229;DHT22;9239;50.932;3.142;2023-12-07T00:20:50;2.50;99.90
18229;DHT22;9239;50.932;3.142;2023-12-07T00:23:17;2.50;99.90
18229;DHT22;9239;50.932;3.142;2023-12-07T00:25:44;2.60;99.90
18229;DHT22;9239;50.932;3.142;2023-12-07T00:28:12;2.60;99.90
18229;DHT22;9239;50.932;3.142;2023-12-07T00:30:38;2.60;99.90
18229;DHT22;9239;50.932;3.142;2023-12-07T00:33:07;2.60;99.90
18229;DHT22;9239;50.932;3.142;2023-12-07T00:35:34;2.60;99.90
18229;DHT22;9239;50.932;3.142;2023-12-07T00:38:03;2.70;99.90
18229;DHT22;9239;50.932;3.142;2023-12-07T00:40:31;2.70;99.90
18229;DHT22;9239;50.932;3.142;2023-12-07T00:43:01;2.70;99.90
18229;DHT22;9239;50.932;3.142;2023-12-07T00:45:28;2.70;99.90
18229;DHT22;9239;50.932;3.142;2023-12-07T00:47:56;2.80;99.90
18229;DHT22;9239;50.932;3.142;2023-12-07T00:50:23;2.80;99.90
18229;DHT22;9239;50.932;3.142;2023-12-07T00:52:50;2.80;99.90
18229;DHT22;9239;50.932;3.142;2023-12-07T00:55:18;2.90;99.90
18229;DHT22;9239;50.932;3.142;2023-12-07T00:57:45;2.90;99.90
18229;DHT22;9239;50.932;3.142;2023-12-07T01:00:12;2.90;99.90
18229;DHT22;9239;50.932;3.142;2023-12-07T01:02:40;2.90;99.90
18229;DHT22;9239;50.932;3.142;2023-12-07T01:05:07;2.90;99.90
18229;DHT22;9239;50.932;3.142;2023-12-07T01:07:34;2.90;99.90
18229;DHT22;9239;50.932;3.142;2023-12-07T01:10:01;3.00;99.90
18229;DHT22;9239;50.932;3.142;2023-12-07T01:12:30;3.00;99.90
18229;DHT22;9239;50.932;3.142;2023-12-07T01:14:56;3.00;99.90
18229;DHT22;9239;50.932;3.142;2023-12-07T01:17:23;3.00;99.90
18229;DHT22;9239;50.932;3.142;2023-12-07T01:19:50;2.90;99.90
18229;DHT22;9239;50.932;3.142;2023-12-07T01:22:17;3.00;99.90
18229;DHT22;9239;50.932;3.142;2023-12-07T01:24:44;3.00;99.90
18229;DHT22;9239;50.932;3.142;2023-12-07T01:27:11;3.00;99.90
18229;DHT22;9239;50.932;3.142;2023-12-07T01:29:39;3.10;99.90
18229;DHT22;9239;50.932;3.142;2023-12-07T01:32:06;3.10;99.90
18229;DHT22;9239;50.932;3.142;2023-12-07T01:34:33;3.10;99.90
18229;DHT22;9239;50.932;3.142;2023-12-07T01:37:00;3.00;99.90
18229;DHT22;9239;50.932;3.142;2023-12-07T01:39:27;3.00;99.90
18229;DHT22;9239;50.932;3.142;2023-12-07T01:41:54;3.10;99.90
18229;DHT22;9239;50.932;3.142;2023-12-07T01:44:21;3.10;99.90
18229;DHT22;9239;50.932;3.142;2023-12-07T01:46:50;3.10;99.90
18229;DHT22;9239;50.932;3.142;2023-12-07T01:49:17;3.10;99.90
18229;DHT22;9239;50.932;3.142;2023-12-07T01:51:44;3.20;99.90
18229;DHT22;9239;50.932;3.142;2023-12-07T01:54:11;3.20;99.90
18229;DHT22;9239;50.932;3.142;2023-12-07T01:56:38;3.20;99.90
18229;DHT22;9239;50.932;3.142;2023-12-07T01:59:05;3.20;99.90
18229;DHT22;9239;50.932;3.142;2023-12-07T02:01:33;3.30;99.90
18229;DHT22;9239;50.932;3.142;2023-12-07T02:04:01;3.30;99.90
18229;DHT22;9239;50.932;3.142;2023-12-07T02:06:28;3.40;99.90
18229;DHT22;9239;50.932;3.142;2023-12-07T02:08:55;3.40;99.90
18229;DHT22;9239;50.932;3.142;2023-12-07T02:11:22;3.40;99.90
18229;DHT22;9239;50.932;3.142;2023-12-07T02:13:49;3.40;99.90
18229;DHT22;9239;50.932;3.142;2023-12-07T02:16:24;3.50;99.90
18229;DHT22;9239;50.932;3.142;2023-12-07T02:18:59;3.50;99.90
18229;DHT22;9239;50.932;3.142;2023-12-07T02:21:36;3.50;99.90
18229;DHT22;9239;50.932;3.142;2023-12-07T02:24:05;3.60;99.90
18229;DHT22;9239;50.932;3.142;2023-12-07T02:26:35;3.60;99.90
18229;DHT22;9239;50.932;3.142;2023-12-07T02:29:03;3.60;99.90
18229;DHT22;9239;50.932;3.142;2023-12-07T02:31:30;3.70;99.90
18229;DHT22;9239;50.932;3.142;2023-12-07T02:33:57;3.70;99.90
18229;DHT22;9239;50.932;3.142;2023-12-07T02:36:27;3.70;99.90
18229;DHT22;9239;50.932;3.142;2023-12-07T02:38:56;3.70;99.90
18229;DHT22;9239;50.932;3.142;2023-12-07T02:41:27;3.80;99.90
18229;DHT22;9239;50.932;3.142;2023-12-07T02:43:56;3.70;99.90
18229;DHT22;9239;50.932;3.142;2023-12-07T02:46:24;3.70;99.90
18229;DHT22;9239;50.932;3.142;2023-12-07T02:48:51;3.70;99.90
18229;DHT22;9239;50.932;3.142;2023-12-07T02:51:18;3.70;99.90
18229;DHT22;9239;50.932;3.142;2023-12-07T02:53:45;3.60;99.90
18229;DHT22;9239;50.932;3.142;2023-12-07T02:56:12;3.70;99.90
18229;DHT22;9239;50.932;3.142;2023-12-07T02:58:39;3.70;99.90
18229;DHT22;9239;50.932;3.142;2023-12-07T03:01:07;3.70;99.90
18229;DHT22;9239;50.932;3.142;2023-12-07T03:03:35;3.80;99.90
18229;DHT22;9239;50.932;3.142;2023-12-07T03:06:04;3.90;99.90
18229;DHT22;9239;50.932;3.142;2023-12-07T03:08:31;3.80;99.90
18229;DHT22;9239;50.932;3.142;2023-12-07T03:10:58;3.90;99.90
18229;DHT22;9239;50.932;3.142;2023-12-07T03:13:24;3.90;99.90
18229;DHT22;9239;50.932;3.142;2023-12-07T03:15:51;3.90;99.90
18229;DHT22;9239;50.932;3.142;2023-12-07T03:18:19;3.90;99.90
18229;DHT22;9239;50.932;3.142;2023-12-07T03:20:46;3.90;99.90
18229;DHT22;9239;50.932;3.142;2023-12-07T03:23:13;3.90;99.90
18229;DHT22;9239;50.932;3.142;2023-12-07T03:25:40;4.00;99.90
18229;DHT22;9239;50.932;3.142;2023-12-07T03:28:07;4.00;99.90
18229;DHT22;9239;50.932;3.142;2023-12-07T03:30:34;4.10;99.90
18229;DHT22;9239;50.932;3.142;2023-12-07T03:33:00;4.00;99.90
18229;DHT22;9239;50.932;3.142;2023-12-07T03:35:29;4.00;99.90
18229;DHT22;9239;50.932;3.142;2023-12-07T03:37:56;4.10;99.90
18229;DHT22;9239;50.932;3.142;2023-12-07T03:40:23;4.10;99.90
18229;DHT22;9239;50.932;3.142;2023-12-07T03:42:49;4.00;99.90
18229;DHT22;9239;50.932;3.142;2023-12-07T03:45:17;4.10;99.90
18229;DHT22;9239;50.932;3.142;2023-12-07T03:47:43;4.00;99.90
18229;DHT22;9239;50.932;3.142;2023-12-07T03:50:10;4.00;99.90
18229;DHT22;9239;50.932;3.142;2023-12-07T03:52:39;4.00;99.90
18229;DHT22;9239;50.932;3.142;2023-12-07T03:55:06;3.90;99.90
18229;DHT22;9239;50.932;3.142;2023-12-07T03:57:33;3.90;99.90
18229;DHT22;9239;50.932;3.142;2023-12-07T04:00:00;3.90;99.90
18229;DHT22;9239;50.932;3.142;2023-12-07T04:02:29;3.90;99.90
18229;DHT22;9239;50.932;3.142;2023-12-07T04:04:58;4.00;99.90
18229;DHT22;9239;50.932;3.142;2023-12-07T04:07:27;4.00;99.90
18229;DHT22;9239;50.932;3.142;2023-12-07T04:09:55;4.00;99.90
18229;DHT22;9239;50.932;3.142;2023-12-07T04:12:23;4.00;99.90
18229;DHT22;9239;50.932;3.142;2023-12-07T04:14:50;4.00;99.90
18229;DHT22;9239;50.932;3.142;2023-12-07T04:17:18;4.10;99.90
18229;DHT22;9239;50.932;3.142;2023-12-07T04:19:45;4.10;99.90
18229;DHT22;9239;50.932;3.142;2023-12-07T04:22:12;4.00;99.90
18229;DHT22;9239;50.932;3.142;2023-12-07T04:24:39;4.00;99.90
18229;DHT22;9239;50.932;3.142;2023-12-07T04:27:07;4.10;99.90
18229;DHT22;9239;50.932;3.142;2023-12-07T04:29:34;4.10;99.90
18229;DHT22;9239;50.932;3.142;2023-12-07T04:32:01;4.10;99.90
18229;DHT22;9239;50.932;3.142;2023-12-07T04:34:28;4.10;99.90
18229;DHT22;9239;50.932;3.142;2023-12-07T04:36:56;4.10;99.90
18229;DHT22;9239;50.932;3.142;2023-12-07T04:39:23;4.20;99.90
18229;DHT22;9239;50.932;3.142;2023-12-07T04:41:50;4.10;99.90
18229;DHT22;9239;50.932;3.142;2023-12-07T04:44:18;4.20;99.90
18229;DHT22;9239;50.932;3.142;2023-12-07T04:46:45;4.20;99.90
18229;DHT22;9239;50.932;3.142;2023-12-07T04:49:12;4.20;99.90
18229;DHT22;9239;50.932;3.142;2023-12-07T04:51:39;4.30;99.90
18229;DHT22;9239;50.932;3.142;2023-12-07T04:54:07;4.20;99.90
18229;DHT22;9239;50.932;3.142;2023-12-07T04:56:34;4.20;99.90
18229;DHT22;9239;50.932;3.142;2023-12-07T04:59:01;4.20;99.90
18229;DHT22;9239;50.932;3.142;2023-12-07T05:01:29;4.20;99.90
18229;DHT22;9239;50.932;3.142;2023-12-07T05:03:56;4.20;99.90
18229;DHT22;9239;50.932;3.142;2023-12-07T05:06:23;4.30;99.90
18229;DHT22;9239;50.932;3.142;2023-12-07T05:08:50;4.20;99.90
18229;DHT22;9239;50.932;3.142;2023-12-07T05:11:17;4.30;99.90
18229;DHT22;9239;50.932;3.142;2023-12-07T05:13:44;4.30;99.90
18229;DHT22;9239;50.932;3.142;2023-12-07T05:16:11;4.30;99.90
18229;DHT22;9239;50.932;3.142;2023-12-07T05:18:39;4.30;99.90
18229;DHT22;9239;50.932;3.142;2023-12-07T05:21:07;4.20;99.90
18229;DHT22;9239;50.932;3.142;2023-12-07T05:23:34;4.20;99.90
18229;DHT22;9239;50.932;3.142;2023-12-07T05:26:01;4.30;99.90
18229;DHT22;9239;50.932;3.142;2023-12-07T05:28:28;4.30;99.90
18229;DHT22;9239;50.932;3.142;2023-12-07T05:30:55;4.30;99.90
18229;DHT22;9239;50.932;3.142;2023-12-07T05:33:23;4.20;99.90
18229;DHT22;9239;50.932;3.142;2023-12-07T05:35:51;4.10;99.90
18229;DHT22;9239;50.932;3.142;2023-12-07T05:38:18;4.00;99.90
18229;DHT22;9239;50.932;3.142;2023-12-07T05:40:45;4.00;99.90
18229;DHT22;9239;50.932;3.142;2023-12-07T05:43:12;4.00;99.90
18229;DHT22;9239;50.932;3.142;2023-12-07T05:45:39;3.90;99.90
18229;DHT22;9239;50.932;3.142;2023-12-07T05:48:06;3.90;99.90
18229;DHT22;9239;50.932;3.142;2023-12-07T05:50:33;3.90;99.90
18229;DHT22;9239;50.932;3.142;2023-12-07T05:53:01;3.90;99.90
18229;DHT22;9239;50.932;3.142;2023-12-07T05:55:28;3.90;99.90
18229;DHT22;9239;50.932;3.142;2023-12-07T05:57:55;4.00;99.90
18229;DHT22;9239;50.932;3.142;2023-12-07T06:00:23;3.90;99.90
18229;DHT22;9239;50.932;3.142;2023-12-07T06:02:51;3.90;99.90
18229;DHT22;9239;50.932;3.142;2023-12-07T06:05:18;3.90;99.90
18229;DHT22;9239;50.932;3.142;2023-12-07T06:07:44;4.00;99.90
18229;DHT22;9239;50.932;3.142;2023-12-07T06:10:13;4.00;99.90
18229;DHT22;9239;50.932;3.142;2023-12-07T06:12:40;4.00;99.90
18229;DHT22;9239;50.932;3.142;2023-12-07T06:15:08;4.00;99.90
18229;DHT22;9239;50.932;3.142;2023-12-07T06:17:37;4.00;99.90
18229;DHT22;9239;50.932;3.142;2023-12-07T06:20:04;3.90;99.90
18229;DHT22;9239;50.932;3.142;2023-12-07T06:22:32;4.00;99.90
18229;DHT22;9239;50.932;3.142;2023-12-07T06:24:58;4.00;99.90
18229;DHT22;9239;50.932;3.142;2023-12-07T06:27:28;4.00;99.90
18229;DHT22;9239;50.932;3.142;2023-12-07T06:29:56;4.00;99.90
18229;DHT22;9239;50.932;3.142;2023-12-07T06:32:23;4.00;99.90
18229;DHT22;9239;50.932;3.142;2023-12-07T06:34:50;3.90;99.90
18229;DHT22;9239;50.932;3.142;2023-12-07T06:37:17;4.00;99.90
18229;DHT22;9239;50.932;3.142;2023-12-07T06:39:45;4.00;99.90
18229;DHT22;9239;50.932;3.142;2023-12-07T06:42:14;4.00;99.90
18229;DHT22;9239;50.932;3.142;2023-12-07T06:44:43;4.00;99.90
18229;DHT22;9239;50.932;3.142;2023-12-07T06:47:10;4.00;99.90
18229;DHT22;9239;50.932;3.142;2023-12-07T06:49:37;4.00;99.90
18229;DHT22;9239;50.932;3.142;2023-12-07T06:52:04;4.10;99.90
18229;DHT22;9239;50.932;3.142;2023-12-07T06:54:31;4.00;99.90
18229;DHT22;9239;50.932;3.142;2023-12-07T06:56:58;4.10;99.90
18229;DHT22;9239;50.932;3.142;2023-12-07T06:59:25;4.10;99.90
18229;DHT22;9239;50.932;3.142;2023-12-07T07:01:53;4.10;99.90
18229;DHT22;9239;50.932;3.142;2023-12-07T07:04:20;4.30;99.90
18229;DHT22;9239;50.932;3.142;2023-12-07T07:06:47;4.30;99.90
18229;DHT22;9239;50.932;3.142;2023-12-07T07:09:38;4.30;99.90
18229;DHT22;9239;50.932;3.142;2023-12-07T07:12:07;4.30;99.90
18229;DHT22;9239;50.932;3.142;2023-12-07T07:14:35;4.20;99.90
18229;DHT22;9239;50.932;3.142;2023-12-07T07:17:04;4.20;99.90
18229;DHT22;9239;50.932;3.142;2023-12-07T07:19:32;4.20;99.90
18229;DHT22;9239;50.932;3.142;2023-12-07T07:21:59;4.20;99.90
18229;DHT22;9239;50.932;3.142;2023-12-07T07:24:26;4.20;99.90
18229;DHT22;9239;50.932;3.142;2023-12-07T07:26:53;4.30;99.90
18229;DHT22;9239;50.932;3.142;2023-12-07T07:29:20;4.30;99.90
18229;DHT22;9239;50.932;3.142;2023-12-07T07:31:47;4.30;99.90
18229;DHT22;9239;50.932;3.142;2023-12-07T07:34:16;4.30;99.90
18229;DHT22;9239;50.932;3.142;2023-12-07T07:36:42;4.20;99.90
18229;DHT22;9239;50.932;3.142;2023-12-07T07:39:09;4.30;99.90
18229;DHT22;9239;50.932;3.142;2023-12-07T07:41:39;4.30;99.90
18229;DHT22;9239;50.932;3.142;2023-12-07T07:44:06;4.20;99.90
18229;DHT22;9239;50.932;3.142;2023-12-07T07:46:33;4.20;99.90
18229;DHT22;9239;50.932;3.142;2023-12-07T07:49:00;4.20;99.90
18229;DHT22;9239;50.932;3.142;2023-12-07T07:51:31;4.20;99.90
18229;DHT22;9239;50.932;3.142;2023-12-07T07:53:58;4.30;99.90
18229;DHT22;9239;50.932;3.142;2023-12-07T07:56:25;4.50;99.90
18229;DHT22;9239;50.932;3.142;2023-12-07T07:58:52;4.60;99.90
18229;DHT22;9239;50.932;3.142;2023-12-07T08:01:19;4.80;99.90
18229;DHT22;9239;50.932;3.142;2023-12-07T08:03:46;4.70;99.90
18229;DHT22;9239;50.932;3.142;2023-12-07T08:06:13;4.70;99.90
18229;DHT22;9239;50.932;3.142;2023-12-07T08:08:41;4.60;99.90
18229;DHT22;9239;50.932;3.142;2023-12-07T08:11:08;4.60;99.90
18229;DHT22;9239;50.932;3.142;2023-12-07T08:13:35;4.60;99.90
18229;DHT22;9239;50.932;3.142;2023-12-07T08:16:03;4.50;99.90
18229;DHT22;9239;50.932;3.142;2023-12-07T08:18:34;4.60;99.90
18229;DHT22;9239;50.932;3.142;2023-12-07T08:21:01;4.60;99.90
18229;DHT22;9239;50.932;3.142;2023-12-07T08:23:29;4.60;99.90
18229;DHT22;9239;50.932;3.142;2023-12-07T08:25:57;4.60;99.90
18229;DHT22;9239;50.932;3.142;2023-12-07T08:28:24;4.60;99.90
18229;DHT22;9239;50.932;3.142;2023-12-07T08:30:51;4.60;99.90
18229;DHT22;9239;50.932;3.142;2023-12-07T08:33:18;4.60;99.90
18229;DHT22;9239;50.932;3.142;2023-12-07T08:35:45;4.60;99.90
18229;DHT22;9239;50.932;3.142;2023-12-07T08:38:14;4.70;99.90
18229;DHT22;9239;50.932;3.142;2023-12-07T08:40:41;4.60;99.90
18229;DHT22;9239;50.932;3.142;2023-12-07T08:43:10;4.60;99.90
18229;DHT22;9239;50.932;3.142;2023-12-07T08:45:37;4.60;99.90
18229;DHT22;9239;50.932;3.142;2023-12-07T08:48:04;4.50;99.90
18229;DHT22;9239;50.932;3.142;2023-12-07T08:50:31;4.50;99.90
18229;DHT22;9239;50.932;3.142;2023-12-07T08:52:58;4.50;99.90
18229;DHT22;9239;50.932;3.142;2023-12-07T08:55:25;4.50;99.90
18229;DHT22;9239;50.932;3.142;2023-12-07T08:57:54;4.50;99.90
18229;DHT22;9239;50.932;3.142;2023-12-07T09:00:23;4.50;99.90
18229;DHT22;9239;50.932;3.142;2023-12-07T09:02:51;4.60;99.90
18229;DHT22;9239;50.932;3.142;2023-12-07T09:05:18;4.60;99.90
18229;DHT22;9239;50.932;3.142;2023-12-07T09:07:45;4.60;99.90
18229;DHT22;9239;50.932;3.142;2023-12-07T09:10:12;4.60;99.90
18229;DHT22;9239;50.932;3.142;2023-12-07T09:12:39;4.70;99.90
18229;DHT22;9239;50.932;3.142;2023-12-07T09:15:07;4.70;99.90
18229;DHT22;9239;50.932;3.142;2023-12-07T09:17:37;4.80;99.90
18229;DHT22;9239;50.932;3.142;2023-12-07T09:20:04;4.90;99.90
18229;DHT22;9239;50.932;3.142;2023-12-07T09:22:32;4.90;99.90
18229;DHT22;9239;50.932;3.142;2023-12-07T09:24:59;4.80;99.90
18229;DHT22;9239;50.932;3.142;2023-12-07T09:27:26;4.90;99.90
18229;DHT22;9239;50.932;3.142;2023-12-07T09:29:53;4.90;99.90
18229;DHT22;9239;50.932;3.142;2023-12-07T09:32:20;4.90;99.90
18229;DHT22;9239;50.932;3.142;2023-12-07T09:34:48;4.90;99.90
18229;DHT22;9239;50.932;3.142;2023-12-07T09:37:16;4.90;99.90
18229;DHT22;9239;50.932;3.142;2023-12-07T09:39:43;5.00;99.90
18229;DHT22;9239;50.932;3.142;2023-12-07T09:42:09;5.10;99.90
18229;DHT22;9239;50.932;3.142;2023-12-07T09:44:37;5.00;99.90
18229;DHT22;9239;50.932;3.142;2023-12-07T09:47:04;5.00;99.90
18229;DHT22;9239;50.932;3.142;2023-12-07T09:49:31;5.00;99.90
18229;DHT22;9239;50.932;3.142;2023-12-07T09:52:01;5.10;99.90
18229;DHT22;9239;50.932;3.142;2023-12-07T09:54:29;5.10;99.90
18229;DHT22;9239;50.932;3.142;2023-12-07T09:56:57;5.10;99.90
18229;DHT22;9239;50.932;3.142;2023-12-07T09:59:24;5.10;99.90
18229;DHT22;9239;50.932;3.142;2023-12-07T10:01:50;5.10;99.90
18229;DHT22;9239;50.932;3.142;2023-12-07T10:04:20;5.10;99.90
18229;DHT22;9239;50.932;3.142;2023-12-07T10:06:48;5.10;99.90
18229;DHT22;9239;50.932;3.142;2023-12-07T10:09:17;5.10;99.90
18229;DHT22;9239;50.932;3.142;2023-12-07T10:11:45;5.10;99.90
18229;DHT22;9239;50.932;3.142;2023-12-07T10:14:12;5.20;99.90
18229;DHT22;9239;50.932;3.142;2023-12-07T10:16:52;5.20;99.90
18229;DHT22;9239;50.932;3.142;2023-12-07T10:19:19;5.20;99.90
18229;DHT22;9239;50.932;3.142;2023-12-07T10:21:47;5.20;99.90
18229;DHT22;9239;50.932;3.142;2023-12-07T10:24:17;5.30;99.90
18229;DHT22;9239;50.932;3.142;2023-12-07T10:26:45;5.30;99.90
18229;DHT22;9239;50.932;3.142;2023-12-07T10:29:12;5.40;99.90
18229;DHT22;9239;50.932;3.142;2023-12-07T10:31:39;5.40;99.90
18229;DHT22;9239;50.932;3.142;2023-12-07T10:34:07;5.50;99.90
18229;DHT22;9239;50.932;3.142;2023-12-07T10:36:34;5.50;99.90
18229;DHT22;9239;50.932;3.142;2023-12-07T10:39:01;5.60;99.90
18229;DHT22;9239;50.932;3.142;2023-12-07T10:41:33;5.60;99.90
18229;DHT22;9239;50.932;3.142;2023-12-07T10:44:01;5.60;99.90
18229;DHT22;9239;50.932;3.142;2023-12-07T10:46:29;5.70;99.90
18229;DHT22;9239;50.932;3.142;2023-12-07T10:49:00;5.80;99.90
18229;DHT22;9239;50.932;3.142;2023-12-07T10:51:31;5.80;99.90
18229;DHT22;9239;50.932;3.142;2023-12-07T10:54:03;5.80;99.90
18229;DHT22;9239;50.932;3.142;2023-12-07T10:56:38;5.80;99.90
18229;DHT22;9239;50.932;3.142;2023-12-07T10:59:08;5.80;99.90
18229;DHT22;9239;50.932;3.142;2023-12-07T11:01:37;5.80;99.90
18229;DHT22;9239;50.932;3.142;2023-12-07T11:04:05;5.80;99.90
18229;DHT22;9239;50.932;3.142;2023-12-07T11:06:32;5.80;99.90
18229;DHT22;9239;50.932;3.142;2023-12-07T11:09:03;5.90;99.90
18229;DHT22;9239;50.932;3.142;2023-12-07T11:11:38;5.90;99.90
18229;DHT22;9239;50.932;3.142;2023-12-07T11:14:09;5.90;99.90
18229;DHT22;9239;50.932;3.142;2023-12-07T11:16:40;5.90;99.90
18229;DHT22;9239;50.932;3.142;2023-12-07T11:22:10;5.90;99.90
18229;DHT22;9239;50.932;3.142;2023-12-07T11:24:38;6.10;99.90
18229;DHT22;9239;50.932;3.142;2023-12-07T11:27:07;6.10;99.90
18229;DHT22;9239;50.932;3.142;2023-12-07T11:29:35;6.10;99.90
18229;DHT22;9239;50.932;3.142;2023-12-07T11:32:03;6.20;99.90
18229;DHT22;9239;50.932;3.142;2023-12-07T11:34:35;6.30;99.90
18229;DHT22;9239;50.932;3.142;2023-12-07T11:37:03;6.30;99.90
18229;DHT22;9239;50.932;3.142;2023-12-07T11:39:34;6.40;99.90
18229;DHT22;9239;50.932;3.142;2023-12-07T11:42:10;6.40;99.90
18229;DHT22;9239;50.932;3.142;2023-12-07T11:44:38;6.30;99.90
18229;DHT22;9239;50.932;3.142;2023-12-07T11:47:06;6.30;99.90
18229;DHT22;9239;50.932;3.142;2023-12-07T11:49:33;6.30;99.90
18229;DHT22;9239;50.932;3.142;2023-12-07T11:52:01;6.40;99.90
18229;DHT22;9239;50.932;3.142;2023-12-07T11:54:38;6.30;99.90
18229;DHT22;9239;50.932;3.142;2023-12-07T11:57:06;6.40;99.90
18229;DHT22;9239;50.932;3.142;2023-12-07T11:59:33;6.40;99.90
18229;DHT22;9239;50.932;3.142;2023-12-07T12:02:01;6.40;99.90
18229;DHT22;9239;50.932;3.142;2023-12-07T12:04:28;6.40;99.90
18229;DHT22;9239;50.932;3.142;2023-12-07T12:06:55;6.40;99.90
18229;DHT22;9239;50.932;3.142;2023-12-07T12:09:24;6.50;99.90
18229;DHT22;9239;50.932;3.142;2023-12-07T12:11:51;6.40;99.90
18229;DHT22;9239;50.932;3.142;2023-12-07T12:14:19;6.40;99.90
18229;DHT22;9239;50.932;3.142;2023-12-07T12:16:47;6.50;99.90
18229;DHT22;9239;50.932;3.142;2023-12-07T12:19:15;6.50;99.90
18229;DHT22;9239;50.932;3.142;2023-12-07T12:21:42;6.60;99.90
18229;DHT22;9239;50.932;3.142;2023-12-07T12:24:10;6.60;99.90
18229;DHT22;9239;50.932;3.142;2023-12-07T12:26:39;6.70;99.90
18229;DHT22;9239;50.932;3.142;2023-12-07T12:29:07;6.60;99.90
18229;DHT22;9239;50.932;3.142;2023-12-07T12:31:36;6.60;99.90
18229;DHT22;9239;50.932;3.142;2023-12-07T12:34:05;6.60;99.90
18229;DHT22;9239;50.932;3.142;2023-12-07T12:36:32;6.60;99.90
18229;DHT22;9239;50.932;3.142;2023-12-07T12:39:00;6.60;99.90
18229;DHT22;9239;50.932;3.142;2023-12-07T12:41:27;6.70;99.90
18229;DHT22;9239;50.932;3.142;2023-12-07T12:43:56;6.70;99.90
18229;DHT22;9239;50.932;3.142;2023-12-07T12:46:25;6.70;99.90
18229;DHT22;9239;50.932;3.142;2023-12-07T12:48:54;6.70;99.90
18229;DHT22;9239;50.932;3.142;2023-12-07T12:51:24;6.60;99.90
18229;DHT22;9239;50.932;3.142;2023-12-07T12:53:53;6.60;99.90
18229;DHT22;9239;50.932;3.142;2023-12-07T12:56:21;6.70;99.90
18229;DHT22;9239;50.932;3.142;2023-12-07T12:58:49;6.70;99.90
18229;DHT22;9239;50.932;3.142;2023-12-07T13:01:16;6.80;99.90
18229;DHT22;9239;50.932;3.142;2023-12-07T13:03:44;6.70;99.90
18229;DHT22;9239;50.932;3.142;2023-12-07T13:06:14;6.70;99.90
18229;DHT22;9239;50.932;3.142;2023-12-07T13:08:41;6.60;99.90
18229;DHT22;9239;50.932;3.142;2023-12-07T13:11:09;6.60;99.90
18229;DHT22;9239;50.932;3.142;2023-12-07T13:13:36;6.70;99.90
18229;DHT22;9239;50.932;3.142;2023-12-07T13:16:03;6.70;99.90
18229;DHT22;9239;50.932;3.142;2023-12-07T13:18:31;6.70;99.90
18229;DHT22;9239;50.932;3.142;2023-12-07T13:20:58;6.70;99.90
18229;DHT22;9239;50.932;3.142;2023-12-07T13:23:27;6.70;99.90
18229;DHT22;9239;50.932;3.142;2023-12-07T13:25:54;6.60;99.90
18229;DHT22;9239;50.932;3.142;2023-12-07T13:28:21;6.70;99.90
18229;DHT22;9239;50.932;3.142;2023-12-07T13:30:48;6.70;99.90
18229;DHT22;9239;50.932;3.142;2023-12-07T13:33:15;6.60;99.90
18229;DHT22;9239;50.932;3.142;2023-12-07T13:35:42;6.70;99.90
18229;DHT22;9239;50.932;3.142;2023-12-07T13:38:10;6.70;99.90
18229;DHT22;9239;50.932;3.142;2023-12-07T13:40:38;6.70;99.90
18229;DHT22;9239;50.932;3.142;2023-12-07T13:43:05;6.70;99.90
18229;DHT22;9239;50.932;3.142;2023-12-07T13:45:33;6.60;99.90
18229;DHT22;9239;50.932;3.142;2023-12-07T13:48:00;6.60;99.90
18229;DHT22;9239;50.932;3.142;2023-12-07T13:50:27;6.50;99.90
18229;DHT22;9239;50.932;3.142;2023-12-07T13:52:54;6.50;99.90
18229;DHT22;9239;50.932;3.142;2023-12-07T13:55:21;6.50;99.90
18229;DHT22;9239;50.932;3.142;2023-12-07T13:57:51;6.40;99.90
18229;DHT22;9239;50.932;3.142;2023-12-07T14:00:19;6.40;99.90
18229;DHT22;9239;50.932;3.142;2023-12-07T14:02:47;6.40;99.90
18229;DHT22;9239;50.932;3.142;2023-12-07T14:05:15;6.30;99.90
18229;DHT22;9239;50.932;3.142;2023-12-07T14:07:42;6.30;99.90
18229;DHT22;9239;50.932;3.142;2023-12-07T14:10:09;6.30;99.90
18229;DHT22;9239;50.932;3.142;2023-12-07T14:12:35;6.20;99.90
18229;DHT22;9239;50.932;3.142;2023-12-07T14:15:05;6.20;99.90
18229;DHT22;9239;50.932;3.142;2023-12-07T14:17:32;6.30;99.90
18229;DHT22;9239;50.932;3.142;2023-12-07T14:20:03;6.20;99.90
18229;DHT22;9239;50.932;3.142;2023-12-07T14:22:31;6.30;99.90
18229;DHT22;9239;50.932;3.142;2023-12-07T14:24:58;6.30;99.90
18229;DHT22;9239;50.932;3.142;2023-12-07T14:27:26;6.30;99.90
18229;DHT22;9239;50.932;3.142;2023-12-07T14:29:53;6.20;99.90
18229;DHT22;9239;50.932;3.142;2023-12-07T14:32:21;6.20;99.90
18229;DHT22;9239;50.932;3.142;2023-12-07T14:34:48;6.20;99.90
18229;DHT22;9239;50.932;3.142;2023-12-07T14:37:15;6.20;99.90
18229;DHT22;9239;50.932;3.142;2023-12-07T14:39:42;6.20;99.90
18229;DHT22;9239;50.932;3.142;2023-12-07T14:42:09;6.30;99.90
18229;DHT22;9239;50.932;3.142;2023-12-07T14:44:36;6.20;99.90
18229;DHT22;9239;50.932;3.142;2023-12-07T14:47:03;6.20;99.90
18229;DHT22;9239;50.932;3.142;2023-12-07T14:49:32;6.30;99.90
18229;DHT22;9239;50.932;3.142;2023-12-07T14:51:59;6.30;99.90
18229;DHT22;9239;50.932;3.142;2023-12-07T14:54:26;6.30;99.90
18229;DHT22;9239;50.932;3.142;2023-12-07T14:56:53;6.40;99.90
18229;DHT22;9239;50.932;3.142;2023-12-07T14:59:22;6.40;99.90
18229;DHT22;9239;50.932;3.142;2023-12-07T15:01:49;6.40;99.90
18229;DHT22;9239;50.932;3.142;2023-12-07T15:04:16;6.40;99.90
18229;DHT22;9239;50.932;3.142;2023-12-07T15:06:45;6.40;99.90
18229;DHT22;9239;50.932;3.142;2023-12-07T15:09:12;6.30;99.90
18229;DHT22;9239;50.932;3.142;2023-12-07T15:11:39;6.30;99.90
18229;DHT22;9239;50.932;3.142;2023-12-07T15:14:06;6.30;99.90
18229;DHT22;9239;50.932;3.142;2023-12-07T15:16:35;6.30;99.90
18229;DHT22;9239;50.932;3.142;2023-12-07T15:19:02;6.30;99.90
18229;DHT22;9239;50.932;3.142;2023-12-07T15:21:29;6.30;99.90
18229;DHT22;9239;50.932;3.142;2023-12-07T15:23:59;6.30;99.90
18229;DHT22;9239;50.932;3.142;2023-12-07T15:26:26;6.30;99.90
18229;DHT22;9239;50.932;3.142;2023-12-07T15:28:53;6.20;99.90
18229;DHT22;9239;50.932;3.142;2023-12-07T15:31:19;6.20;99.90
18229;DHT22;9239;50.932;3.142;2023-12-07T15:33:46;6.10;99.90
18229;DHT22;9239;50.932;3.142;2023-12-07T15:36:13;6.10;99.90
18229;DHT22;9239;50.932;3.142;2023-12-07T15:38:40;6.10;99.90
18229;DHT22;9239;50.932;3.142;2023-12-07T15:41:09;6.10;99.90
18229;DHT22;9239;50.932;3.142;2023-12-07T15:43:36;6.10;99.90
18229;DHT22;9239;50.932;3.142;2023-12-07T15:46:03;6.10;99.90
18229;DHT22;9239;50.932;3.142;2023-12-07T15:48:32;6.10;99.90
18229;DHT22;9239;50.932;3.142;2023-12-07T15:51:00;6.10;99.90
18229;DHT22;9239;50.932;3.142;2023-12-07T15:53:27;6.10;99.90
18229;DHT22;9239;50.932;3.142;2023-12-07T15:55:55;6.10;99.90
18229;DHT22;9239;50.932;3.142;2023-12-07T15:58:23;6.00;99.90
18229;DHT22;9239;50.932;3.142;2023-12-07T16:00:50;6.00;99.90
18229;DHT22;9239;50.932;3.142;2023-12-07T16:03:17;6.10;99.90
18229;DHT22;9239;50.932;3.142;2023-12-07T16:05:44;6.10;99.90
18229;DHT22;9239;50.932;3.142;2023-12-07T16:08:12;6.00;99.90